sensor_id;sensor_type;location;lat;lon;timestamp;pressure;altitude;pressure_sealevel;temperature;humidity
13869;BME280;7004;48.206;16.402;2023-07-13T00:01:46;99453.06;;;22.94;79.13
13869;BME280;7004;48.206;16.402;2023-07-13T00:04:17;99450.88;;;23.42;78.74
13869;BME280;7004;48.206;16.402;2023-07-13T00:06:44;99457.31;;;23.26;76.88
13869;BME280;7004;48.206;16.402;2023-07-13T00:09:16;99449.88;;;23.58;77.76
13869;BME280;7004;48.206;16.402;2023-07-13T00:11:43;99438.06;;;23.74;74.95
13869;BME280;7004;48.206;16.402;2023-07-13T00:14:11;99439.53;;;23.76;75.75
13869;BME280;7004;48.206;16.402;2023-07-13T00:16:39;99422.78;;;23.37;77.51
13869;BME280;7004;48.206;16.402;2023-07-13T00:19:10;99425.22;;;23.31;77.31
13869;BME280;7004;48.206;16.402;2023-07-13T00:21:36;99420.75;;;23.53;75.56
13869;BME280;7004;48.206;16.402;2023-07-13T00:24:02;99412.66;;;23.39;76.49
13869;BME280;7004;48.206;16.402;2023-07-13T00:26:29;99416.47;;;23.44;75.91
13869;BME280;7004;48.206;16.402;2023-07-13T00:28:55;99417.94;;;23.62;73.25
13869;BME280;7004;48.206;16.402;2023-07-13T00:31:21;99409.31;;;23.37;75.53
13869;BME280;7004;48.206;16.402;2023-07-13T00:33:47;99404.47;;;23.32;73.70
13869;BME280;7004;48.206;16.402;2023-07-13T00:36:13;99400.75;;;23.48;74.50
13869;BME280;7004;48.206;16.402;2023-07-13T00:38:40;99392.41;;;23.28;75.26
13869;BME280;7004;48.206;16.402;2023-07-13T00:41:07;99396.22;;;23.33;76.30
13869;BME280;7004;48.206;16.402;2023-07-13T00:43:33;99399.72;;;23.34;75.71
13869;BME280;7004;48.206;16.402;2023-07-13T00:48:33;99398.72;;;23.35;73.75
13869;BME280;7004;48.206;16.402;2023-07-13T00:51:01;99388.56;;;23.52;71.62
13869;BME280;7004;48.206;16.402;2023-07-13T00:53:29;99392.50;;;23.20;72.30
13869;BME280;7004;48.206;16.402;2023-07-13T00:55:57;99384.66;;;23.40;70.16
13869;BME280;7004;48.206;16.402;2023-07-13T00:58:25;99371.94;;;23.19;70.62
13869;BME280;7004;48.206;16.402;2023-07-13T01:00:53;99368.16;;;23.79;69.02
13869;BME280;7004;48.206;16.402;2023-07-13T01:03:20;99361.56;;;23.52;68.60
13869;BME280;7004;48.206;16.402;2023-07-13T01:05:48;99350.75;;;23.67;68.09
13869;BME280;7004;48.206;16.402;2023-07-13T01:08:15;99339.72;;;23.47;68.29
13869;BME280;7004;48.206;16.402;2023-07-13T01:10:54;99337.13;;;23.53;70.22
13869;BME280;7004;48.206;16.402;2023-07-13T01:13:21;99340.78;;;23.82;67.22
13869;BME280;7004;48.206;16.402;2023-07-13T01:15:50;99345.22;;;23.53;67.59
13869;BME280;7004;48.206;16.402;2023-07-13T01:18:26;99351.50;;;23.61;68.77
13869;BME280;7004;48.206;16.402;2023-07-13T01:21:03;99349.41;;;23.56;66.93
13869;BME280;7004;48.206;16.402;2023-07-13T01:23:32;99339.47;;;23.78;66.87
13869;BME280;7004;48.206;16.402;2023-07-13T01:25:59;99345.53;;;23.65;66.25
13869;BME280;7004;48.206;16.402;2023-07-13T01:28:26;99354.91;;;23.84;65.68
13869;BME280;7004;48.206;16.402;2023-07-13T01:30:55;99354.66;;;24.01;64.20
13869;BME280;7004;48.206;16.402;2023-07-13T01:33:22;99336.91;;;24.13;64.00
13869;BME280;7004;48.206;16.402;2023-07-13T01:35:48;99336.59;;;23.80;67.55
13869;BME280;7004;48.206;16.402;2023-07-13T01:38:18;99344.78;;;23.71;65.43
13869;BME280;7004;48.206;16.402;2023-07-13T01:40:44;99339.28;;;23.80;64.78
13869;BME280;7004;48.206;16.402;2023-07-13T01:43:12;99338.00;;;23.24;69.86
13869;BME280;7004;48.206;16.402;2023-07-13T01:45:39;99334.88;;;23.57;65.64
13869;BME280;7004;48.206;16.402;2023-07-13T01:48:05;99339.31;;;23.65;70.66
13869;BME280;7004;48.206;16.402;2023-07-13T01:50:33;99334.47;;;22.79;76.26
13869;BME280;7004;48.206;16.402;2023-07-13T01:52:59;99314.41;;;22.52;75.74
13869;BME280;7004;48.206;16.402;2023-07-13T01:55:27;99318.22;;;22.87;75.19
13869;BME280;7004;48.206;16.402;2023-07-13T01:57:56;99313.97;;;23.44;73.04
13869;BME280;7004;48.206;16.402;2023-07-13T02:00:24;99310.59;;;23.21;72.05
13869;BME280;7004;48.206;16.402;2023-07-13T02:02:51;99323.41;;;23.19;68.36
13869;BME280;7004;48.206;16.402;2023-07-13T02:05:18;99336.78;;;23.99;62.68
13869;BME280;7004;48.206;16.402;2023-07-13T02:07:46;99331.06;;;23.88;62.30
13869;BME280;7004;48.206;16.402;2023-07-13T02:10:12;99326.84;;;24.00;60.21
13869;BME280;7004;48.206;16.402;2023-07-13T02:12:41;99329.56;;;24.50;62.52
13869;BME280;7004;48.206;16.402;2023-07-13T02:15:08;99324.06;;;24.43;60.37
13869;BME280;7004;48.206;16.402;2023-07-13T02:17:36;99331.22;;;24.29;60.55
13869;BME280;7004;48.206;16.402;2023-07-13T02:20:07;99331.44;;;24.06;60.66
13869;BME280;7004;48.206;16.402;2023-07-13T02:22:34;99339.25;;;24.23;60.18
13869;BME280;7004;48.206;16.402;2023-07-13T02:25:01;99350.56;;;24.54;58.85
13869;BME280;7004;48.206;16.402;2023-07-13T02:27:27;99350.19;;;24.57;58.32
13869;BME280;7004;48.206;16.402;2023-07-13T02:29:54;99365.28;;;24.30;59.96
13869;BME280;7004;48.206;16.402;2023-07-13T02:32:20;99371.91;;;24.28;60.15
13869;BME280;7004;48.206;16.402;2023-07-13T02:34:48;99389.50;;;24.67;60.69
13869;BME280;7004;48.206;16.402;2023-07-13T02:37:15;99391.09;;;24.54;61.83
13869;BME280;7004;48.206;16.402;2023-07-13T02:39:41;99414.78;;;24.31;60.28
13869;BME280;7004;48.206;16.402;2023-07-13T02:42:08;99417.59;;;24.44;60.93
13869;BME280;7004;48.206;16.402;2023-07-13T02:44:35;99433.53;;;24.39;61.72
13869;BME280;7004;48.206;16.402;2023-07-13T02:47:01;99445.97;;;24.55;61.44
13869;BME280;7004;48.206;16.402;2023-07-13T02:49:27;99462.78;;;24.35;62.02
13869;BME280;7004;48.206;16.402;2023-07-13T02:51:53;99479.53;;;24.46;62.40
13869;BME280;7004;48.206;16.402;2023-07-13T02:54:19;99484.25;;;24.43;63.32
13869;BME280;7004;48.206;16.402;2023-07-13T02:56:46;99498.50;;;24.31;63.42
13869;BME280;7004;48.206;16.402;2023-07-13T02:59:12;99507.09;;;24.05;65.41
13869;BME280;7004;48.206;16.402;2023-07-13T03:01:38;99523.09;;;24.21;65.43
13869;BME280;7004;48.206;16.402;2023-07-13T03:04:04;99522.25;;;23.84;67.30
13869;BME280;7004;48.206;16.402;2023-07-13T03:06:34;99523.66;;;24.16;67.17
13869;BME280;7004;48.206;16.402;2023-07-13T03:09:00;99534.53;;;23.72;70.40
13869;BME280;7004;48.206;16.402;2023-07-13T03:11:27;99544.19;;;23.51;73.96
13869;BME280;7004;48.206;16.402;2023-07-13T03:13:53;99545.13;;;23.06;74.13
13869;BME280;7004;48.206;16.402;2023-07-13T03:16:19;99542.72;;;23.11;74.72
13869;BME280;7004;48.206;16.402;2023-07-13T03:18:47;99560.75;;;22.87;75.53
13869;BME280;7004;48.206;16.402;2023-07-13T03:21:14;99562.69;;;23.02;78.97
13869;BME280;7004;48.206;16.402;2023-07-13T03:23:40;99565.47;;;22.85;79.81
13869;BME280;7004;48.206;16.402;2023-07-13T03:26:16;99560.81;;;22.79;82.35
13869;BME280;7004;48.206;16.402;2023-07-13T03:28:43;99555.81;;;22.99;76.92
13869;BME280;7004;48.206;16.402;2023-07-13T03:31:14;99560.22;;;22.92;81.76
13869;BME280;7004;48.206;16.402;2023-07-13T03:33:40;99554.44;;;22.49;86.00
13869;BME280;7004;48.206;16.402;2023-07-13T03:36:11;99564.03;;;22.75;83.04
13869;BME280;7004;48.206;16.402;2023-07-13T03:38:38;99562.16;;;22.29;86.16
13869;BME280;7004;48.206;16.402;2023-07-13T03:41:04;99570.06;;;22.31;83.70
13869;BME280;7004;48.206;16.402;2023-07-13T03:43:30;99568.06;;;22.79;84.21
13869;BME280;7004;48.206;16.402;2023-07-13T03:45:56;99579.19;;;22.53;87.70
13869;BME280;7004;48.206;16.402;2023-07-13T03:48:22;99571.44;;;22.27;89.46
13869;BME280;7004;48.206;16.402;2023-07-13T03:50:49;99580.56;;;22.09;90.52
13869;BME280;7004;48.206;16.402;2023-07-13T03:53:15;99582.00;;;22.28;89.23
13869;BME280;7004;48.206;16.402;2023-07-13T03:55:41;99577.91;;;22.40;89.04
13869;BME280;7004;48.206;16.402;2023-07-13T03:58:31;99578.69;;;22.49;88.08
13869;BME280;7004;48.206;16.402;2023-07-13T04:00:59;99575.72;;;22.44;90.92
13869;BME280;7004;48.206;16.402;2023-07-13T04:03:27;99577.19;;;22.46;89.56
13869;BME280;7004;48.206;16.402;2023-07-13T04:05:55;99579.88;;;22.23;92.60
13869;BME280;7004;48.206;16.402;2023-07-13T04:08:31;99573.03;;;22.67;90.93
13869;BME280;7004;48.206;16.402;2023-07-13T04:10:58;99577.34;;;22.53;93.36
13869;BME280;7004;48.206;16.402;2023-07-13T04:13:25;99578.31;;;22.29;94.09
13869;BME280;7004;48.206;16.402;2023-07-13T04:15:52;99584.41;;;22.15;97.32
13869;BME280;7004;48.206;16.402;2023-07-13T04:18:19;99580.53;;;22.17;99.35
13869;BME280;7004;48.206;16.402;2023-07-13T04:20:50;99580.66;;;22.32;93.36
13869;BME280;7004;48.206;16.402;2023-07-13T04:23:17;99563.94;;;22.91;92.83
13869;BME280;7004;48.206;16.402;2023-07-13T04:25:49;99558.38;;;22.07;100.00
13869;BME280;7004;48.206;16.402;2023-07-13T04:28:22;99537.22;;;22.58;98.14
13869;BME280;7004;48.206;16.402;2023-07-13T04:30:51;99530.28;;;22.41;98.36
13869;BME280;7004;48.206;16.402;2023-07-13T04:33:17;99518.72;;;22.01;100.00
13869;BME280;7004;48.206;16.402;2023-07-13T04:35:44;99519.47;;;21.78;100.00
13869;BME280;7004;48.206;16.402;2023-07-13T04:38:12;99515.97;;;22.09;100.00
13869;BME280;7004;48.206;16.402;2023-07-13T04:40:38;99510.75;;;22.62;99.31
13869;BME280;7004;48.206;16.402;2023-07-13T04:43:04;99508.47;;;21.96;99.43
13869;BME280;7004;48.206;16.402;2023-07-13T04:45:31;99493.88;;;21.91;98.38
13869;BME280;7004;48.206;16.402;2023-07-13T04:47:57;99486.28;;;22.49;98.12
13869;BME280;7004;48.206;16.402;2023-07-13T04:50:23;99480.06;;;22.25;100.00
13869;BME280;7004;48.206;16.402;2023-07-13T04:52:51;99473.72;;;22.41;100.00
13869;BME280;7004;48.206;16.402;2023-07-13T04:55:18;99467.81;;;22.45;100.00
13869;BME280;7004;48.206;16.402;2023-07-13T04:57:45;99465.59;;;21.95;100.00
13869;BME280;7004;48.206;16.402;2023-07-13T05:00:13;99463.06;;;21.93;100.00
13869;BME280;7004;48.206;16.402;2023-07-13T05:02:44;99455.81;;;21.63;100.00
13869;BME280;7004;48.206;16.402;2023-07-13T05:05:12;99444.91;;;21.95;100.00
13869;BME280;7004;48.206;16.402;2023-07-13T05:07:38;99452.22;;;21.39;100.00
13869;BME280;7004;48.206;16.402;2023-07-13T05:10:05;99451.78;;;22.52;100.00
13869;BME280;7004;48.206;16.402;2023-07-13T05:12:31;99443.97;;;21.80;100.00
13869;BME280;7004;48.206;16.402;2023-07-13T05:14:58;99440.50;;;22.02;100.00
13869;BME280;7004;48.206;16.402;2023-07-13T05:17:24;99437.03;;;22.17;100.00
13869;BME280;7004;48.206;16.402;2023-07-13T05:19:50;99435.53;;;22.60;100.00
13869;BME280;7004;48.206;16.402;2023-07-13T05:22:16;99436.16;;;22.48;100.00
13869;BME280;7004;48.206;16.402;2023-07-13T05:24:42;99429.16;;;22.76;98.88
13869;BME280;7004;48.206;16.402;2023-07-13T05:27:08;99440.47;;;23.24;95.35
13869;BME280;7004;48.206;16.402;2023-07-13T05:29:35;99432.06;;;22.89;95.19
13869;BME280;7004;48.206;16.402;2023-07-13T05:32:01;99442.44;;;23.30;93.07
13869;BME280;7004;48.206;16.402;2023-07-13T05:34:27;99449.28;;;23.03;93.98
13869;BME280;7004;48.206;16.402;2023-07-13T05:36:55;99455.72;;;23.62;89.11
13869;BME280;7004;48.206;16.402;2023-07-13T05:39:21;99460.47;;;22.77;94.49
13869;BME280;7004;48.206;16.402;2023-07-13T05:41:48;99473.22;;;22.83;86.71
13869;BME280;7004;48.206;16.402;2023-07-13T05:44:14;99469.03;;;23.48;91.36
13869;BME280;7004;48.206;16.402;2023-07-13T05:46:40;99466.72;;;22.78;96.98
13869;BME280;7004;48.206;16.402;2023-07-13T05:49:08;99481.81;;;22.41;90.52
13869;BME280;7004;48.206;16.402;2023-07-13T05:51:34;99475.50;;;23.24;86.75
13869;BME280;7004;48.206;16.402;2023-07-13T05:54:00;99478.03;;;22.88;94.54
13869;BME280;7004;48.206;16.402;2023-07-13T05:56:26;99480.19;;;23.30;87.04
13869;BME280;7004;48.206;16.402;2023-07-13T05:58:52;99483.72;;;22.93;91.63
13869;BME280;7004;48.206;16.402;2023-07-13T06:01:18;99490.91;;;22.63;87.13
13869;BME280;7004;48.206;16.402;2023-07-13T06:03:47;99492.84;;;22.31;91.23
13869;BME280;7004;48.206;16.402;2023-07-13T06:06:14;99497.19;;;22.78;85.47
13869;BME280;7004;48.206;16.402;2023-07-13T06:08:41;99511.06;;;23.28;81.18
13869;BME280;7004;48.206;16.402;2023-07-13T06:11:17;99508.28;;;22.98;85.18
13869;BME280;7004;48.206;16.402;2023-07-13T06:13:43;99508.13;;;22.77;81.96
13869;BME280;7004;48.206;16.402;2023-07-13T06:16:11;99517.53;;;22.58;83.60
13869;BME280;7004;48.206;16.402;2023-07-13T06:18:37;99521.66;;;22.92;83.45
13869;BME280;7004;48.206;16.402;2023-07-13T06:21:19;99525.63;;;23.04;82.99
13869;BME280;7004;48.206;16.402;2023-07-13T06:23:48;99532.88;;;23.18;77.66
13869;BME280;7004;48.206;16.402;2023-07-13T06:26:15;99537.28;;;22.96;81.40
13869;BME280;7004;48.206;16.402;2023-07-13T06:28:41;99537.28;;;22.73;81.72
13869;BME280;7004;48.206;16.402;2023-07-13T06:31:10;99548.16;;;22.57;84.29
13869;BME280;7004;48.206;16.402;2023-07-13T06:33:36;99547.19;;;23.04;81.88
13869;BME280;7004;48.206;16.402;2023-07-13T06:36:04;99548.72;;;22.52;83.25
13869;BME280;7004;48.206;16.402;2023-07-13T06:38:31;99550.56;;;22.52;85.69
13869;BME280;7004;48.206;16.402;2023-07-13T06:40:58;99559.75;;;23.11;80.44
13869;BME280;7004;48.206;16.402;2023-07-13T06:43:24;99562.09;;;23.29;81.22
13869;BME280;7004;48.206;16.402;2023-07-13T06:45:54;99559.75;;;23.11;82.85
13869;BME280;7004;48.206;16.402;2023-07-13T06:48:20;99572.13;;;23.21;82.47
13869;BME280;7004;48.206;16.402;2023-07-13T06:50:48;99568.16;;;22.85;81.05
13869;BME280;7004;48.206;16.402;2023-07-13T06:53:16;99567.09;;;22.95;83.89
13869;BME280;7004;48.206;16.402;2023-07-13T06:55:44;99562.16;;;22.83;81.71
13869;BME280;7004;48.206;16.402;2023-07-13T06:58:11;99568.03;;;23.77;79.27
13869;BME280;7004;48.206;16.402;2023-07-13T07:00:37;99577.50;;;23.59;77.58
13869;BME280;7004;48.206;16.402;2023-07-13T07:03:03;99580.81;;;23.61;77.53
13869;BME280;7004;48.206;16.402;2023-07-13T07:05:29;99570.84;;;23.31;78.81
13869;BME280;7004;48.206;16.402;2023-07-13T07:07:55;99575.91;;;22.88;81.25
13869;BME280;7004;48.206;16.402;2023-07-13T07:10:22;99569.81;;;23.18;80.03
13869;BME280;7004;48.206;16.402;2023-07-13T07:12:48;99574.19;;;24.37;74.95
13869;BME280;7004;48.206;16.402;2023-07-13T07:15:14;99573.44;;;23.92;76.68
13869;BME280;7004;48.206;16.402;2023-07-13T07:17:40;99573.72;;;23.97;80.26
13869;BME280;7004;48.206;16.402;2023-07-13T07:20:07;99582.91;;;23.88;76.18
13869;BME280;7004;48.206;16.402;2023-07-13T07:22:33;99568.09;;;23.69;80.38
13869;BME280;7004;48.206;16.402;2023-07-13T07:24:59;99570.63;;;24.01;79.76
13869;BME280;7004;48.206;16.402;2023-07-13T07:27:26;99566.97;;;23.49;78.21
13869;BME280;7004;48.206;16.402;2023-07-13T07:29:52;99563.03;;;23.37;81.84
13869;BME280;7004;48.206;16.402;2023-07-13T07:32:19;99559.28;;;24.05;75.64
13869;BME280;7004;48.206;16.402;2023-07-13T07:34:46;99561.03;;;22.93;76.92
13869;BME280;7004;48.206;16.402;2023-07-13T07:37:14;99569.69;;;24.08;72.09
13869;BME280;7004;48.206;16.402;2023-07-13T07:39:40;99562.31;;;23.43;81.35
13869;BME280;7004;48.206;16.402;2023-07-13T07:42:07;99560.75;;;24.08;73.24
13869;BME280;7004;48.206;16.402;2023-07-13T07:44:33;99568.31;;;23.97;72.55
13869;BME280;7004;48.206;16.402;2023-07-13T07:47:00;99557.84;;;23.35;72.33
13869;BME280;7004;48.206;16.402;2023-07-13T07:49:26;99557.19;;;24.07;72.32
13869;BME280;7004;48.206;16.402;2023-07-13T07:51:52;99568.06;;;24.29;75.20
13869;BME280;7004;48.206;16.402;2023-07-13T07:54:18;99573.00;;;23.36;75.18
13869;BME280;7004;48.206;16.402;2023-07-13T07:56:45;99572.69;;;23.31;75.64
13869;BME280;7004;48.206;16.402;2023-07-13T07:59:11;99566.03;;;24.31;70.68
13869;BME280;7004;48.206;16.402;2023-07-13T08:01:37;99572.66;;;24.13;72.45
13869;BME280;7004;48.206;16.402;2023-07-13T08:04:04;99564.78;;;24.48;73.01
13869;BME280;7004;48.206;16.402;2023-07-13T08:06:32;99570.88;;;24.20;69.84
13869;BME280;7004;48.206;16.402;2023-07-13T08:09:00;99570.25;;;24.55;70.19
13869;BME280;7004;48.206;16.402;2023-07-13T08:11:27;99576.22;;;24.50;72.32
13869;BME280;7004;48.206;16.402;2023-07-13T08:13:53;99560.38;;;25.33;65.09
13869;BME280;7004;48.206;16.402;2023-07-13T08:16:19;99564.34;;;26.00;64.09
13869;BME280;7004;48.206;16.402;2023-07-13T08:18:45;99561.78;;;26.40;62.42
13869;BME280;7004;48.206;16.402;2023-07-13T08:21:12;99566.28;;;26.94;59.93
13869;BME280;7004;48.206;16.402;2023-07-13T08:23:38;99568.19;;;26.19;62.34
13869;BME280;7004;48.206;16.402;2023-07-13T08:26:04;99571.19;;;25.96;60.07
13869;BME280;7004;48.206;16.402;2023-07-13T08:28:31;99566.88;;;26.63;60.70
13869;BME280;7004;48.206;16.402;2023-07-13T08:31:03;99570.88;;;27.00;57.54
13869;BME280;7004;48.206;16.402;2023-07-13T08:33:29;99564.88;;;26.30;59.94
13869;BME280;7004;48.206;16.402;2023-07-13T08:35:55;99573.19;;;26.84;58.26
13869;BME280;7004;48.206;16.402;2023-07-13T08:38:22;99576.97;;;27.56;57.16
13869;BME280;7004;48.206;16.402;2023-07-13T08:40:55;99574.69;;;27.19;56.02
13869;BME280;7004;48.206;16.402;2023-07-13T08:43:34;99563.88;;;28.11;52.73
13869;BME280;7004;48.206;16.402;2023-07-13T08:46:32;99584.25;;;28.34;53.08
13869;BME280;7004;48.206;16.402;2023-07-13T08:49:17;99584.59;;;28.57;53.29
13869;BME280;7004;48.206;16.402;2023-07-13T08:51:56;99572.56;;;27.81;52.95
13869;BME280;7004;48.206;16.402;2023-07-13T08:57:01;99572.31;;;27.90;53.20
13869;BME280;7004;48.206;16.402;2023-07-13T08:59:31;99564.06;;;28.09;52.37
13869;BME280;7004;48.206;16.402;2023-07-13T09:02:57;99570.00;;;28.77;52.68
13869;BME280;7004;48.206;16.402;2023-07-13T09:05:38;99579.09;;;28.12;54.23
13869;BME280;7004;48.206;16.402;2023-07-13T09:14:47;99604.84;;;28.61;52.13
13869;BME280;7004;48.206;16.402;2023-07-13T09:17:40;99605.25;;;28.13;53.26
13869;BME280;7004;48.206;16.402;2023-07-13T09:21:03;99596.09;;;28.59;52.54
13869;BME280;7004;48.206;16.402;2023-07-13T09:23:27;99585.84;;;28.55;52.11
13869;BME280;7004;48.206;16.402;2023-07-13T09:26:04;99592.75;;;28.89;52.46
13869;BME280;7004;48.206;16.402;2023-07-13T09:28:46;99594.47;;;28.83;50.77
13869;BME280;7004;48.206;16.402;2023-07-13T09:31:39;99590.03;;;28.50;51.28
13869;BME280;7004;48.206;16.402;2023-07-13T09:34:13;99591.16;;;28.29;53.04
13869;BME280;7004;48.206;16.402;2023-07-13T09:36:39;99582.69;;;28.06;54.61
13869;BME280;7004;48.206;16.402;2023-07-13T09:39:35;99596.16;;;28.32;54.66
13869;BME280;7004;48.206;16.402;2023-07-13T09:42:16;99588.94;;;28.06;53.96
13869;BME280;7004;48.206;16.402;2023-07-13T09:45:02;99599.19;;;28.11;54.75
13869;BME280;7004;48.206;16.402;2023-07-13T09:47:32;99593.03;;;27.44;53.58
13869;BME280;7004;48.206;16.402;2023-07-13T09:50:06;99587.19;;;27.60;54.25
13869;BME280;7004;48.206;16.402;2023-07-13T09:52:46;99592.78;;;27.79;53.28
13869;BME280;7004;48.206;16.402;2023-07-13T09:55:27;99586.16;;;27.35;54.54
13869;BME280;7004;48.206;16.402;2023-07-13T09:57:55;99580.28;;;27.71;53.25
13869;BME280;7004;48.206;16.402;2023-07-13T10:00:28;99577.06;;;28.84;50.84
13869;BME280;7004;48.206;16.402;2023-07-13T10:03:20;99571.69;;;29.34;49.18
13869;BME280;7004;48.206;16.402;2023-07-13T10:05:50;99569.56;;;29.36;48.14
13869;BME280;7004;48.206;16.402;2023-07-13T10:08:29;99581.84;;;29.71;47.64
13869;BME280;7004;48.206;16.402;2023-07-13T10:11:09;99577.91;;;29.67;46.72
13869;BME280;7004;48.206;16.402;2023-07-13T10:13:56;99574.00;;;29.81;46.49
13869;BME280;7004;48.206;16.402;2023-07-13T10:16:26;99580.16;;;29.70;46.55
13869;BME280;7004;48.206;16.402;2023-07-13T10:18:58;99578.31;;;29.89;46.14
13869;BME280;7004;48.206;16.402;2023-07-13T10:21:34;99569.88;;;29.47;47.85
13869;BME280;7004;48.206;16.402;2023-07-13T10:24:21;99578.97;;;29.84;45.63
13869;BME280;7004;48.206;16.402;2023-07-13T10:27:19;99581.00;;;30.44;45.38
13869;BME280;7004;48.206;16.402;2023-07-13T10:29:52;99587.19;;;30.14;45.17
13869;BME280;7004;48.206;16.402;2023-07-13T10:32:22;99576.63;;;30.24;44.50
13869;BME280;7004;48.206;16.402;2023-07-13T10:34:51;99603.56;;;30.51;43.71
13869;BME280;7004;48.206;16.402;2023-07-13T10:37:36;99583.91;;;29.94;43.92
13869;BME280;7004;48.206;16.402;2023-07-13T10:40:11;99596.91;;;30.10;46.13
13869;BME280;7004;48.206;16.402;2023-07-13T10:42:43;99596.13;;;29.41;45.83
13869;BME280;7004;48.206;16.402;2023-07-13T10:45:23;99585.56;;;29.26;46.62
13869;BME280;7004;48.206;16.402;2023-07-13T10:47:52;99600.19;;;29.00;46.92
13869;BME280;7004;48.206;16.402;2023-07-13T10:50:28;99598.31;;;29.01;46.50
13869;BME280;7004;48.206;16.402;2023-07-13T10:53:34;99589.34;;;29.25;45.32
13869;BME280;7004;48.206;16.402;2023-07-13T10:58:45;99578.75;;;29.17;46.57
13869;BME280;7004;48.206;16.402;2023-07-13T11:01:17;99589.69;;;28.79;46.38
13869;BME280;7004;48.206;16.402;2023-07-13T11:03:50;99579.03;;;29.02;45.19
13869;BME280;7004;48.206;16.402;2023-07-13T11:21:31;99599.28;;;29.63;43.29
13869;BME280;7004;48.206;16.402;2023-07-13T11:31:56;99595.38;;;30.14;41.20
13869;BME280;7004;48.206;16.402;2023-07-13T11:34:41;99595.31;;;31.00;40.76
13869;BME280;7004;48.206;16.402;2023-07-13T11:37:16;99603.06;;;31.03;41.03
13869;BME280;7004;48.206;16.402;2023-07-13T11:39:46;99607.22;;;31.05;40.02
13869;BME280;7004;48.206;16.402;2023-07-13T11:42:17;99608.59;;;30.96;38.87
13869;BME280;7004;48.206;16.402;2023-07-13T11:44:49;99600.97;;;31.87;38.63
13869;BME280;7004;48.206;16.402;2023-07-13T11:47:22;99601.28;;;30.48;38.58
13869;BME280;7004;48.206;16.402;2023-07-13T11:49:55;99596.59;;;31.63;36.83
13869;BME280;7004;48.206;16.402;2023-07-13T11:52:35;99605.09;;;31.31;39.01
13869;BME280;7004;48.206;16.402;2023-07-13T11:55:18;99603.47;;;30.88;38.64
13869;BME280;7004;48.206;16.402;2023-07-13T11:57:50;99596.84;;;30.65;38.70
13869;BME280;7004;48.206;16.402;2023-07-13T12:00:23;99591.66;;;31.18;38.54
13869;BME280;7004;48.206;16.402;2023-07-13T12:02:56;99581.88;;;31.40;38.75
13869;BME280;7004;48.206;16.402;2023-07-13T12:05:23;99583.28;;;31.78;38.08
13869;BME280;7004;48.206;16.402;2023-07-13T12:07:51;99584.59;;;31.75;35.95
13869;BME280;7004;48.206;16.402;2023-07-13T12:10:22;99574.94;;;30.72;34.38
13869;BME280;7004;48.206;16.402;2023-07-13T12:15:23;99566.50;;;32.38;33.90
13869;BME280;7004;48.206;16.402;2023-07-13T12:17:52;99560.75;;;31.47;35.44
13869;BME280;7004;48.206;16.402;2023-07-13T12:20:30;99565.47;;;31.75;34.49
13869;BME280;7004;48.206;16.402;2023-07-13T12:22:59;99569.91;;;30.57;35.61
13869;BME280;7004;48.206;16.402;2023-07-13T12:25:28;99553.41;;;30.94;36.13
13869;BME280;7004;48.206;16.402;2023-07-13T12:27:55;99552.38;;;31.07;36.75
13869;BME280;7004;48.206;16.402;2023-07-13T12:30:28;99564.19;;;30.89;35.72
13869;BME280;7004;48.206;16.402;2023-07-13T12:33:11;99567.78;;;31.01;36.45
13869;BME280;7004;48.206;16.402;2023-07-13T12:35:56;99571.13;;;30.43;37.23
13869;BME280;7004;48.206;16.402;2023-07-13T12:38:25;99570.19;;;29.82;38.15
13869;BME280;7004;48.206;16.402;2023-07-13T12:40:52;99570.41;;;29.99;39.27
13869;BME280;7004;48.206;16.402;2023-07-13T12:43:22;99563.75;;;30.13;38.55
13869;BME280;7004;48.206;16.402;2023-07-13T12:46:02;99573.34;;;30.83;38.61
13869;BME280;7004;48.206;16.402;2023-07-13T12:48:29;99581.09;;;29.82;39.15
13869;BME280;7004;48.206;16.402;2023-07-13T12:50:56;99580.25;;;30.37;39.78
13869;BME280;7004;48.206;16.402;2023-07-13T12:53:30;99558.72;;;30.47;38.59
13869;BME280;7004;48.206;16.402;2023-07-13T12:56:01;99558.53;;;31.26;38.69
13869;BME280;7004;48.206;16.402;2023-07-13T12:58:36;99552.47;;;31.83;37.17
13869;BME280;7004;48.206;16.402;2023-07-13T13:01:04;99548.59;;;31.20;37.02
13869;BME280;7004;48.206;16.402;2023-07-13T13:03:40;99545.25;;;31.18;36.69
13869;BME280;7004;48.206;16.402;2023-07-13T13:06:28;99550.19;;;31.39;36.45
13869;BME280;7004;48.206;16.402;2023-07-13T13:08:58;99552.75;;;30.38;37.55
13869;BME280;7004;48.206;16.402;2023-07-13T13:11:27;99554.69;;;30.50;38.55
13869;BME280;7004;48.206;16.402;2023-07-13T13:13:53;99548.09;;;31.23;37.36
13869;BME280;7004;48.206;16.402;2023-07-13T13:16:48;99538.41;;;30.43;36.85
13869;BME280;7004;48.206;16.402;2023-07-13T13:19:23;99528.31;;;30.74;36.67
13869;BME280;7004;48.206;16.402;2023-07-13T13:21:51;99526.88;;;30.71;36.64
13869;BME280;7004;48.206;16.402;2023-07-13T13:24:22;99519.97;;;31.10;38.03
13869;BME280;7004;48.206;16.402;2023-07-13T13:26:50;99507.25;;;30.51;38.71
13869;BME280;7004;48.206;16.402;2023-07-13T13:29:22;99529.69;;;30.83;38.34
13869;BME280;7004;48.206;16.402;2023-07-13T13:31:53;99528.44;;;30.37;39.73
13869;BME280;7004;48.206;16.402;2023-07-13T13:34:21;99533.44;;;30.40;39.77
13869;BME280;7004;48.206;16.402;2023-07-13T13:36:49;99534.50;;;30.39;40.26
13869;BME280;7004;48.206;16.402;2023-07-13T13:39:28;99544.06;;;30.11;41.53
13869;BME280;7004;48.206;16.402;2023-07-13T13:41:55;99542.47;;;30.03;39.85
13869;BME280;7004;48.206;16.402;2023-07-13T13:44:22;99534.16;;;30.47;39.20
13869;BME280;7004;48.206;16.402;2023-07-13T13:46:52;99535.09;;;30.41;38.67
13869;BME280;7004;48.206;16.402;2023-07-13T13:49:23;99532.88;;;30.50;38.80
13869;BME280;7004;48.206;16.402;2023-07-13T13:51:51;99515.22;;;30.94;38.51
13869;BME280;7004;48.206;16.402;2023-07-13T13:54:20;99506.88;;;30.77;38.60
13869;BME280;7004;48.206;16.402;2023-07-13T13:56:51;99491.91;;;30.26;39.46